createdAt,value
2023-05-01T00:01:57.360Z,14.00
2023-05-01T00:04:26.757Z,12.30
2023-05-01T00:06:55.565Z,13.60
2023-05-01T00:09:24.269Z,14.20
2023-05-01T00:11:52.926Z,12.20
2023-05-01T00:14:21.762Z,15.60
2023-05-01T00:16:50.629Z,14.50
2023-05-01T00:19:19.299Z,11.80
2023-05-01T00:21:52.716Z,15.70
2023-05-01T00:24:21.371Z,16.80
2023-05-01T00:26:50.361Z,15.80
2023-05-01T00:29:19.983Z,16.40
2023-05-01T00:31:48.688Z,16.40
2023-05-01T00:34:17.644Z,19.80
2023-05-01T00:36:48.039Z,22.00
2023-05-01T00:39:18.128Z,18.20
2023-05-01T00:41:46.782Z,18.10
2023-05-01T00:44:15.665Z,14.40
2023-05-01T00:46:44.796Z,21.40
2023-05-01T00:49:13.981Z,17.60
2023-05-01T00:51:43.372Z,15.80
2023-05-01T00:54:11.846Z,24.50
2023-05-01T00:56:40.434Z,23.40
2023-05-01T00:59:09.438Z,19.90
2023-05-01T01:01:38.375Z,19.90
2023-05-01T01:04:07.146Z,17.60
2023-05-01T01:07:09.529Z,16.70
2023-05-01T01:09:41.132Z,18.70
2023-05-01T01:12:42.681Z,19.70
2023-05-01T01:15:19.253Z,22.50
2023-05-01T01:20:36.586Z,20.40
2023-05-01T01:26:07.628Z,18.40
2023-05-01T01:28:42.123Z,20.20
2023-05-01T01:31:14.720Z,25.70
2023-05-01T01:34:02.223Z,16.90
2023-05-01T01:36:51.755Z,17.50
2023-05-01T01:39:50.132Z,21.30
2023-05-01T01:42:51.691Z,20.20
2023-05-01T01:45:24.324Z,17.30
2023-05-01T01:47:55.048Z,18.30
2023-05-01T01:50:27.590Z,17.80
2023-05-01T01:53:04.053Z,23.70
2023-05-01T01:55:36.624Z,15.30
2023-05-01T01:58:07.358Z,20.20
2023-05-01T02:00:37.006Z,18.50
2023-05-01T02:03:06.850Z,16.10
2023-05-01T02:05:36.588Z,15.50
2023-05-01T02:08:06.097Z,18.90
2023-05-01T02:10:36.400Z,17.00
2023-05-01T02:13:06.237Z,15.40
2023-05-01T02:15:35.549Z,14.30
2023-05-01T02:18:06.868Z,16.10
2023-05-01T02:20:38.145Z,15.70
2023-05-01T02:23:08.236Z,16.00
2023-05-01T02:25:39.716Z,14.50
2023-05-01T02:28:13.237Z,14.90
2023-05-01T02:30:42.704Z,12.00
2023-05-01T02:33:11.688Z,12.60
2023-05-01T02:35:44.809Z,12.50
2023-05-01T02:38:17.275Z,10.80
2023-05-01T02:40:57.551Z,12.50
2023-05-01T02:43:28.909Z,10.50
2023-05-01T02:45:59.384Z,9.80
2023-05-01T02:48:29.390Z,10.60
2023-05-01T02:50:59.301Z,13.10
2023-05-01T02:53:29.860Z,11.10
2023-05-01T02:56:05.201Z,12.60
2023-05-01T02:58:35.130Z,9.00
2023-05-01T03:01:03.724Z,11.50
2023-05-01T03:03:32.809Z,12.40
2023-05-01T03:06:01.943Z,10.20
2023-05-01T03:08:32.315Z,11.10
2023-05-01T03:11:05.833Z,10.10
2023-05-01T03:13:35.550Z,9.70
2023-05-01T03:16:04.931Z,10.70
2023-05-01T03:18:33.623Z,12.90
2023-05-01T03:21:02.710Z,12.30
2023-05-01T03:23:31.998Z,9.60
2023-05-01T03:26:00.805Z,10.30
2023-05-01T03:28:29.601Z,10.90
2023-05-01T03:30:58.271Z,8.50
2023-05-01T03:33:28.056Z,14.20
2023-05-01T03:36:04.757Z,8.20
2023-05-01T03:38:34.456Z,9.10
2023-05-01T03:41:12.383Z,8.20
2023-05-01T03:43:44.031Z,10.90
2023-05-01T03:46:27.673Z,11.60
2023-05-01T03:48:57.164Z,16.00
2023-05-01T03:51:27.397Z,10.20
2023-05-01T03:53:59.164Z,11.00
2023-05-01T03:56:35.915Z,14.20
2023-05-01T03:59:05.272Z,11.60
2023-05-01T04:01:35.195Z,8.70
2023-05-01T04:04:04.559Z,9.10
2023-05-01T04:06:34.182Z,9.00
2023-05-01T04:09:03.880Z,9.20
2023-05-01T04:11:32.808Z,9.60
2023-05-01T04:14:01.953Z,10.60
2023-05-01T04:16:31.390Z,12.20
2023-05-01T04:19:00.165Z,10.80
2023-05-01T04:21:29.329Z,9.40
2023-05-01T04:23:58.822Z,11.10
2023-05-01T04:26:27.718Z,12.70
2023-05-01T04:28:56.412Z,11.10
2023-05-01T04:31:26.642Z,11.70
2023-05-01T04:33:57.188Z,8.20
2023-05-01T04:36:26.045Z,9.40
2023-05-01T04:38:54.935Z,10.00
2023-05-01T04:41:24.444Z,8.00
2023-05-01T04:43:53.219Z,8.90
2023-05-01T04:46:22.234Z,11.60
2023-05-01T04:48:51.727Z,14.80
2023-05-01T04:51:21.027Z,14.60
2023-05-01T04:53:50.113Z,9.90
2023-05-01T04:56:23.320Z,9.60
2023-05-01T04:58:54.712Z,9.80
2023-05-01T05:01:25.835Z,12.50
2023-05-01T05:03:55.343Z,10.30
2023-05-01T05:06:24.495Z,15.90
2023-05-01T05:08:54.642Z,10.50
2023-05-01T05:11:23.120Z,16.30
2023-05-01T05:13:53.157Z,10.80
2023-05-01T05:16:21.926Z,13.30
2023-05-01T05:18:52.849Z,11.10
2023-05-01T05:21:21.642Z,12.50
2023-05-01T05:23:53.836Z,11.20
2023-05-01T05:26:23.656Z,9.10
2023-05-01T05:28:52.528Z,9.70
2023-05-01T05:31:21.761Z,9.40
2023-05-01T05:33:50.713Z,11.60
2023-05-01T05:36:20.360Z,12.70
2023-05-01T05:38:49.613Z,11.90
2023-05-01T05:41:20.769Z,13.00
2023-05-01T05:43:50.263Z,9.60
2023-05-01T05:46:18.849Z,11.60
2023-05-01T05:48:48.244Z,9.80
2023-05-01T05:51:17.339Z,15.90
2023-05-01T05:53:45.918Z,8.60
2023-05-01T05:56:14.806Z,10.50
2023-05-01T05:58:44.427Z,12.00
2023-05-01T06:01:13.003Z,11.70
2023-05-01T06:03:41.714Z,10.50
2023-05-01T06:06:10.644Z,9.50
2023-05-01T06:08:41.016Z,12.90
2023-05-01T06:11:12.452Z,10.40
2023-05-01T06:13:41.252Z,7.80
2023-05-01T06:16:10.464Z,7.50
2023-05-01T06:18:38.923Z,7.70
2023-05-01T06:21:08.008Z,10.60
2023-05-01T06:23:36.929Z,7.30
2023-05-01T06:26:23.659Z,10.00
2023-05-01T06:28:52.555Z,8.90
2023-05-01T06:31:21.897Z,9.90
2023-05-01T06:33:56.636Z,6.40
2023-05-01T06:36:31.771Z,8.80
2023-05-01T06:39:00.454Z,14.30
2023-05-01T06:41:29.239Z,11.00
2023-05-01T06:43:58.890Z,8.40
2023-05-01T06:46:28.395Z,8.50
2023-05-01T06:48:56.831Z,7.20
2023-05-01T06:51:25.618Z,7.10
2023-05-01T06:53:54.120Z,7.90
2023-05-01T06:56:23.426Z,10.10
2023-05-01T06:58:53.038Z,7.10
2023-05-01T07:01:21.890Z,8.00
2023-05-01T07:03:50.634Z,5.00
2023-05-01T07:06:23.768Z,8.60
2023-05-01T07:08:54.829Z,5.90
2023-05-01T07:11:23.400Z,7.40
2023-05-01T07:13:52.224Z,4.80
2023-05-01T07:16:21.828Z,3.70
2023-05-01T07:18:50.917Z,9.00
2023-05-01T07:21:19.505Z,4.60
2023-05-01T07:23:48.168Z,4.80
2023-05-01T07:26:17.060Z,7.80
2023-05-01T07:28:45.751Z,5.50
2023-05-01T07:31:15.680Z,5.30
2023-05-01T07:33:45.300Z,9.20
2023-05-01T07:36:16.960Z,8.90
2023-05-01T07:42:23.724Z,8.80
2023-05-01T07:44:52.324Z,10.30
2023-05-01T07:47:21.357Z,12.30
2023-05-01T07:49:50.184Z,11.10
2023-05-01T07:52:18.556Z,7.10
2023-05-01T07:54:51.585Z,8.20
2023-05-01T07:57:20.235Z,6.90
2023-05-01T07:59:49.025Z,7.70
2023-05-01T08:02:18.076Z,11.70
2023-05-01T08:04:48.525Z,5.20
2023-05-01T08:07:18.050Z,5.70
2023-05-01T08:09:46.938Z,8.40
2023-05-01T08:12:15.468Z,4.80
2023-05-01T08:14:44.276Z,6.80
2023-05-01T08:17:12.927Z,10.00
2023-05-01T08:19:41.485Z,6.90
2023-05-01T08:22:10.681Z,8.20
2023-05-01T08:24:39.672Z,10.50
2023-05-01T08:27:09.172Z,5.10
2023-05-01T08:29:37.652Z,6.10
2023-05-01T08:32:06.244Z,6.30
2023-05-01T08:34:35.096Z,8.50
2023-05-01T08:37:03.820Z,13.70
2023-05-01T08:39:32.921Z,7.20
2023-05-01T08:42:01.873Z,4.70
2023-05-01T08:44:31.963Z,5.50
2023-05-01T08:47:17.528Z,4.90
2023-05-01T08:49:48.242Z,6.90
2023-05-01T08:52:17.231Z,10.20
2023-05-01T08:54:47.489Z,6.80
2023-05-01T08:57:17.437Z,8.40
2023-05-01T08:59:47.084Z,6.80
2023-05-01T09:02:16.468Z,7.10
2023-05-01T09:04:45.975Z,6.60
2023-05-01T09:07:15.353Z,6.10
2023-05-01T09:09:44.385Z,5.50
2023-05-01T09:12:27.055Z,8.50
2023-05-01T09:14:57.230Z,5.30
2023-05-01T09:17:25.920Z,3.70
2023-05-01T09:19:55.096Z,3.60
2023-05-01T09:22:24.446Z,4.60
2023-05-01T09:24:52.916Z,9.60
2023-05-01T09:27:21.353Z,4.80
2023-05-01T09:29:49.814Z,3.40
2023-05-01T09:32:28.356Z,6.90
2023-05-01T09:35:10.906Z,6.20
2023-05-01T09:37:39.891Z,7.70
2023-05-01T09:40:14.535Z,6.60
2023-05-01T09:42:53.447Z,5.70
2023-05-01T09:45:23.767Z,6.90
2023-05-01T09:47:52.067Z,6.10
2023-05-01T09:50:35.266Z,5.40
2023-05-01T09:53:06.811Z,6.30
2023-05-01T09:55:35.489Z,9.60
2023-05-01T09:58:03.958Z,8.50
2023-05-01T10:00:34.382Z,10.10
2023-05-01T10:03:15.362Z,11.20
2023-05-01T10:05:44.881Z,6.30
2023-05-01T10:08:16.132Z,7.60
2023-05-01T10:10:44.932Z,6.40
2023-05-01T10:13:19.269Z,5.60
2023-05-01T10:15:47.674Z,4.20
2023-05-01T10:18:18.547Z,9.70
2023-05-01T10:20:47.365Z,7.20
2023-05-01T10:23:15.791Z,6.80
2023-05-01T10:25:45.287Z,6.70
2023-05-01T10:28:14.534Z,4.70
2023-05-01T10:30:46.054Z,4.70
2023-05-01T10:33:15.090Z,7.50
2023-05-01T10:35:50.397Z,7.20
2023-05-01T10:38:25.490Z,7.90
2023-05-01T10:40:53.866Z,8.80
2023-05-01T10:43:30.879Z,6.70
2023-05-01T10:46:08.658Z,7.30
2023-05-01T10:48:44.117Z,6.60
2023-05-01T10:51:20.433Z,4.50
2023-05-01T10:54:10.259Z,7.10
2023-05-01T10:56:38.599Z,7.50
2023-05-01T10:59:07.658Z,12.00
2023-05-01T11:01:40.291Z,6.40
2023-05-01T11:04:23.085Z,23.70
2023-05-01T11:07:08.014Z,16.90
2023-05-01T11:09:38.345Z,13.70
2023-05-01T11:12:08.483Z,11.90
2023-05-01T11:15:02.602Z,25.60
2023-05-01T11:17:41.039Z,16.90
2023-05-01T11:20:33.567Z,15.50
2023-05-01T11:23:02.265Z,8.50
2023-05-01T11:25:32.084Z,11.00
2023-05-01T11:28:02.462Z,13.40
2023-05-01T11:30:41.011Z,19.20
2023-05-01T11:33:10.997Z,13.30
2023-05-01T11:35:40.265Z,10.60
2023-05-01T11:38:18.998Z,11.40
2023-05-01T11:40:56.174Z,4.30
2023-05-01T11:43:24.722Z,5.60
2023-05-01T11:45:55.360Z,33.90
2023-05-01T11:48:24.125Z,6.10
2023-05-01T11:50:52.494Z,6.10
2023-05-01T11:53:21.215Z,9.60
2023-05-01T11:55:49.914Z,21.50
2023-05-01T11:58:18.409Z,6.70
2023-05-01T12:00:51.383Z,13.50
2023-05-01T12:03:20.867Z,7.80
2023-05-01T12:05:49.766Z,6.60
2023-05-01T12:08:21.006Z,11.40
2023-05-01T12:10:57.570Z,15.30
2023-05-01T12:13:27.257Z,8.10
2023-05-01T12:15:57.061Z,41.10
2023-05-01T12:18:25.935Z,9.10
2023-05-01T12:20:55.705Z,4.70
2023-05-01T12:23:40.010Z,13.40
2023-05-01T12:26:18.083Z,5.10
2023-05-01T12:29:03.372Z,6.50
2023-05-01T12:31:32.382Z,5.80
2023-05-01T12:34:08.301Z,7.40
2023-05-01T12:36:37.723Z,7.80
2023-05-01T12:39:14.407Z,7.80
2023-05-01T12:41:49.775Z,11.00
2023-05-01T12:44:25.147Z,8.20
2023-05-01T12:46:59.304Z,6.40
2023-05-01T12:49:29.474Z,6.30
2023-05-01T12:52:00.159Z,5.40
2023-05-01T12:54:32.637Z,11.30
2023-05-01T12:57:11.617Z,7.60
2023-05-01T12:59:41.841Z,4.10
2023-05-01T13:02:17.591Z,8.10
2023-05-01T13:04:49.567Z,6.50
2023-05-01T13:07:19.561Z,11.90
2023-05-01T13:09:57.922Z,10.10
2023-05-01T13:12:28.068Z,7.80
2023-05-01T13:14:57.571Z,8.00
2023-05-01T13:17:31.343Z,7.40
2023-05-01T13:20:02.619Z,8.60
2023-05-01T13:22:36.982Z,7.70
2023-05-01T13:25:15.426Z,7.70
2023-05-01T13:27:53.839Z,6.70
2023-05-01T13:30:33.148Z,6.50
2023-05-01T13:33:02.428Z,10.80
2023-05-01T13:35:31.703Z,7.00
2023-05-01T13:38:04.137Z,6.50
2023-05-01T13:40:35.055Z,8.40
2023-05-01T13:43:04.047Z,8.80
2023-05-01T13:45:33.101Z,8.80
2023-05-01T13:48:04.893Z,5.30
2023-05-01T13:50:34.724Z,3.80
2023-05-01T13:53:03.149Z,6.80
2023-05-01T13:55:32.917Z,5.90
2023-05-01T13:58:03.267Z,5.80
2023-05-01T14:00:31.676Z,5.80
2023-05-01T14:03:00.451Z,5.80
2023-05-01T14:05:29.770Z,9.60
2023-05-01T14:07:59.124Z,12.90
2023-05-01T14:10:29.693Z,7.50
2023-05-01T14:12:59.156Z,7.50
2023-05-01T14:15:28.982Z,6.00
2023-05-01T14:17:59.125Z,11.20
2023-05-01T14:20:27.449Z,8.50
2023-05-01T14:22:55.910Z,13.40
2023-05-01T14:25:34.959Z,7.80
2023-05-01T14:28:09.789Z,8.00
2023-05-01T14:30:39.926Z,9.30
2023-05-01T14:33:13.230Z,9.60
2023-05-01T14:35:50.395Z,10.30
2023-05-01T14:38:20.905Z,8.00
2023-05-01T14:40:49.495Z,5.00
2023-05-01T14:43:20.106Z,5.50
2023-05-01T14:46:40.103Z,6.50
2023-05-01T14:49:08.612Z,6.80
2023-05-01T14:51:57.100Z,7.20
2023-05-01T14:55:08.453Z,6.50
2023-05-01T14:57:39.413Z,7.70
2023-05-01T15:00:28.242Z,6.40
2023-05-01T15:03:09.469Z,5.30
2023-05-01T15:05:40.430Z,6.00
2023-05-01T15:08:09.711Z,8.00
2023-05-01T15:10:38.871Z,10.80
2023-05-01T15:13:07.326Z,7.10
2023-05-01T15:15:35.942Z,6.70
2023-05-01T15:18:04.555Z,6.20
2023-05-01T15:20:33.368Z,7.70
2023-05-01T15:23:01.685Z,9.20
2023-05-01T15:25:30.159Z,8.30
2023-05-01T15:27:58.679Z,6.00
2023-05-01T15:30:27.301Z,6.70
2023-05-01T15:32:56.005Z,6.70
2023-05-01T15:35:24.678Z,8.10
2023-05-01T15:37:54.217Z,5.90
2023-05-01T15:40:23.135Z,9.80
2023-05-01T15:42:52.178Z,5.30
2023-05-01T15:45:23.054Z,8.20
2023-05-01T15:47:51.631Z,5.60
2023-05-01T15:50:21.422Z,8.60
2023-05-01T15:52:52.746Z,4.40
2023-05-01T15:55:22.293Z,5.20
2023-05-01T15:57:50.935Z,9.70
2023-05-01T16:00:21.968Z,6.80
2023-05-01T16:02:54.839Z,6.80
2023-05-01T16:05:25.377Z,7.50
2023-05-01T16:07:56.010Z,7.50
2023-05-01T16:10:25.769Z,6.20
2023-05-01T16:12:54.322Z,7.60
2023-05-01T16:15:23.136Z,4.90
2023-05-01T16:17:52.413Z,5.80
2023-05-01T16:20:21.315Z,10.50
2023-05-01T16:22:50.087Z,9.60
2023-05-01T16:25:18.768Z,7.90
2023-05-01T16:27:47.735Z,6.50
2023-05-01T16:30:16.171Z,5.30
2023-05-01T16:32:45.164Z,6.20
2023-05-01T16:35:19.086Z,7.00
2023-05-01T16:37:47.749Z,8.90
2023-05-01T16:40:18.213Z,10.10
2023-05-01T16:42:53.692Z,7.90
2023-05-01T16:45:22.498Z,9.10
2023-05-01T16:47:51.778Z,12.70
2023-05-01T16:50:22.561Z,7.20
2023-05-01T16:53:42.537Z,7.70
2023-05-01T16:56:11.700Z,8.20
2023-05-01T16:58:40.252Z,15.20
2023-05-01T17:01:08.745Z,8.60
2023-05-01T17:03:38.968Z,10.10
2023-05-01T17:06:08.570Z,10.60
2023-05-01T17:08:36.861Z,8.10
2023-05-01T17:11:06.931Z,12.90
2023-05-01T17:13:35.718Z,14.00
2023-05-01T17:16:04.533Z,7.00
2023-05-01T17:18:33.152Z,6.00
2023-05-01T17:21:02.182Z,9.80
2023-05-01T17:23:57.289Z,6.40
2023-05-01T17:26:50.686Z,8.60
2023-05-01T17:29:19.623Z,15.20
2023-05-01T17:35:25.288Z,22.90
2023-05-01T17:37:53.705Z,22.40
2023-05-01T17:40:22.061Z,29.10
2023-05-01T17:42:50.981Z,17.00
2023-05-01T17:45:20.891Z,19.20
2023-05-01T17:47:49.804Z,18.20
2023-05-01T17:50:19.488Z,20.30
2023-05-01T17:52:48.036Z,22.60
2023-05-01T17:55:18.303Z,19.60
2023-05-01T17:57:47.914Z,16.50
2023-05-01T18:00:17.042Z,19.70
2023-05-01T18:02:46.921Z,27.70
2023-05-01T18:05:15.838Z,23.30
2023-05-01T18:07:44.642Z,14.80
2023-05-01T18:10:13.160Z,19.70
2023-05-01T18:12:41.858Z,23.80
2023-05-01T18:15:11.206Z,30.80
2023-05-01T18:17:39.762Z,39.50
2023-05-01T18:20:09.358Z,31.60
2023-05-01T18:22:37.873Z,37.40
2023-05-01T18:25:07.237Z,30.10
2023-05-01T18:27:38.222Z,26.60
2023-05-01T18:30:09.033Z,21.30
2023-05-01T18:32:47.485Z,22.10
2023-05-01T18:35:18.733Z,27.50
2023-05-01T18:37:47.299Z,20.10
2023-05-01T18:40:15.821Z,16.80
2023-05-01T18:42:44.429Z,26.00
2023-05-01T18:45:14.305Z,27.10
2023-05-01T18:47:43.063Z,22.60
2023-05-01T18:50:11.812Z,24.30
2023-05-01T18:56:17.284Z,30.90
2023-05-01T18:58:45.937Z,28.00
2023-05-01T19:01:14.269Z,26.00
2023-05-01T19:03:42.751Z,22.40
2023-05-01T19:06:11.282Z,28.20
2023-05-01T19:08:40.297Z,21.00
2023-05-01T19:11:08.732Z,24.20
2023-05-01T19:13:37.308Z,18.50
2023-05-01T19:16:06.016Z,28.50
2023-05-01T19:18:37.580Z,20.00
2023-05-01T19:21:06.177Z,24.00
2023-05-01T19:23:35.218Z,25.40
2023-05-01T19:26:08.472Z,22.20
2023-05-01T19:28:47.700Z,24.70
2023-05-01T19:31:20.670Z,28.00
2023-05-01T19:33:50.537Z,16.10
2023-05-01T19:36:21.813Z,14.90
2023-05-01T19:38:53.995Z,21.20
2023-05-01T19:41:27.976Z,20.60
2023-05-01T19:43:58.223Z,13.30
2023-05-01T19:46:27.059Z,17.50
2023-05-01T19:48:55.630Z,18.00
2023-05-01T19:51:24.152Z,15.20
2023-05-01T19:53:52.533Z,18.70
2023-05-01T19:56:21.036Z,14.20
2023-05-01T19:58:49.735Z,15.80
2023-05-01T20:01:17.944Z,17.40
2023-05-01T20:03:46.507Z,22.60
2023-05-01T20:06:15.658Z,23.40
2023-05-01T20:08:44.552Z,22.40
2023-05-01T20:11:13.026Z,26.10
2023-05-01T20:13:42.053Z,21.20
2023-05-01T20:16:10.728Z,32.00
2023-05-01T20:18:39.259Z,29.50
2023-05-01T20:21:08.165Z,30.00
2023-05-01T20:23:36.608Z,30.00
2023-05-01T20:26:05.245Z,30.20
2023-05-01T20:28:33.812Z,28.90
2023-05-01T20:31:02.471Z,34.00
2023-05-01T20:33:30.904Z,36.50
2023-05-01T20:35:59.562Z,35.80
2023-05-01T20:38:27.959Z,32.50
2023-05-01T20:40:56.540Z,25.80
2023-05-01T20:43:25.123Z,26.80
2023-05-01T20:45:54.030Z,33.50
2023-05-01T20:48:25.320Z,30.00
2023-05-01T20:50:53.881Z,33.30
2023-05-01T20:53:22.224Z,37.20
2023-05-01T20:55:50.688Z,33.60
2023-05-01T20:58:19.092Z,35.10
2023-05-01T21:00:47.672Z,31.40
2023-05-01T21:03:16.587Z,35.60
2023-05-01T21:05:45.346Z,30.40
2023-05-01T21:08:13.931Z,29.30
2023-05-01T21:10:42.379Z,27.30
2023-05-01T21:13:10.903Z,30.90
2023-05-01T21:15:41.911Z,23.30
2023-05-01T21:18:14.554Z,35.70
2023-05-01T21:20:45.776Z,22.60
2023-05-01T21:23:17.025Z,28.00
2023-05-01T21:25:45.447Z,26.20
2023-05-01T21:28:14.664Z,35.10
2023-05-01T21:30:43.195Z,24.50
2023-05-01T21:33:17.316Z,29.80
2023-05-01T21:35:46.959Z,31.40
2023-05-01T21:38:16.693Z,29.10
2023-05-01T21:40:46.414Z,30.60
2023-05-01T21:43:15.017Z,24.80
2023-05-01T21:45:44.561Z,30.90
2023-05-01T21:48:18.596Z,33.30
2023-05-01T21:50:50.449Z,32.30
2023-05-01T21:53:18.791Z,29.80
2023-05-01T21:55:47.246Z,36.50
2023-05-01T21:58:15.702Z,33.70
2023-05-01T22:00:46.144Z,20.70
2023-05-01T22:03:18.271Z,29.00
2023-05-01T22:05:47.112Z,27.90
2023-05-01T22:08:15.660Z,31.40
2023-05-01T22:10:45.723Z,32.30
2023-05-01T22:13:14.217Z,26.90
2023-05-01T22:15:42.797Z,31.50
2023-05-01T22:18:11.307Z,37.00
2023-05-01T22:20:39.906Z,24.90
2023-05-01T22:23:08.394Z,29.60
2023-05-01T22:25:37.186Z,23.10
2023-05-01T22:28:06.323Z,26.00
2023-05-01T22:30:35.331Z,27.80
2023-05-01T22:33:04.071Z,29.60
2023-05-01T22:35:32.535Z,25.80
2023-05-01T22:38:01.070Z,25.10
2023-05-01T22:40:29.549Z,25.20
2023-05-01T22:42:58.432Z,22.60
2023-05-01T22:45:27.514Z,23.90
2023-05-01T22:47:56.524Z,20.80
2023-05-01T22:50:25.154Z,20.10
2023-05-01T22:52:53.746Z,25.10
2023-05-01T22:55:22.536Z,24.90
2023-05-01T22:57:51.319Z,22.10
2023-05-01T23:00:19.866Z,25.00
2023-05-01T23:02:48.289Z,19.40
2023-05-01T23:05:17.626Z,15.80
2023-05-01T23:07:46.274Z,18.80
2023-05-01T23:10:15.702Z,19.40
2023-05-01T23:12:45.337Z,17.90
2023-05-01T23:15:17.182Z,23.60
2023-05-01T23:17:46.420Z,24.80
2023-05-01T23:20:22.954Z,16.90
2023-05-01T23:22:51.826Z,17.40
2023-05-01T23:25:26.280Z,15.30
2023-05-01T23:27:56.936Z,18.10
2023-05-01T23:30:25.502Z,17.30
2023-05-01T23:32:58.993Z,13.90
2023-05-01T23:35:27.499Z,18.60
2023-05-01T23:37:56.283Z,16.80
2023-05-01T23:40:25.174Z,17.10
2023-05-01T23:42:55.344Z,17.10
2023-05-01T23:45:23.912Z,20.50
2023-05-01T23:47:52.489Z,14.70
2023-05-01T23:50:21.715Z,19.70
2023-05-01T23:52:50.532Z,15.90
2023-05-01T23:55:20.448Z,17.80
2023-05-01T23:57:48.766Z,14.80
